Eskisehir, Turkey

10:30 PM EEST on August 23, 2014 (GMT +0300)
Anadolu | Change Station
CLOSE
Current Station
Airport
Location: ANADOLU,
Elevation: 2589 ft
Nearby Weather Stations

Elev 2589 ft 39.81 °N, 30.52 °E | Updated 40 minutes ago

Clear
Clear
72 °F
Feels Like 72 °F
N
8
Wind Variable Wind from WSW

Today
High -- | Low -- °F
--% Chance of Precip.
Yesterday
High -- | Low -- °F
Precip. -- in
6:16 AM 7:43 PM
Waning Crescent, 3% visible
Pressure 30.01 in
Visibility -9999.0 miles
Clouds
Dew Point 57 °F
Humidity 60%
Rainfall 0.00 in
Snow Depth Not available.
UV Not available.
Pollen Not available.
Air Quality Not available.
Flu Activity Not available.
METAR LTBY 231850Z 25007KT CAVOK 22/14 Q1016

More Conditions Fewer Conditions

Pressure 30.01 in
Visibility -9999.0 miles
Clouds
Dew Point 57 °F
Humidity 60%
Rainfall 0.00 in
Snow Depth Not available.
UV Not available.
Pollen Not available.
Air Quality Not available.
Flu Activity Not available.
METAR LTBY 231850Z 25007KT CAVOK 22/14 Q1016

More Conditions Fewer Conditions

10-Day Weather Forecast

Almanac

Astronomy

Aug. 23, 2014 Rise Set
Actual Time 6:16 AM EEST 7:43 PM EEST
Civil Twilight 5:48 AM EEST 8:11 PM EEST
Nautical Twilight 5:14 AM EEST 8:45 PM EEST
Astronomical Twilight 4:38 AM EEST 9:20 PM EEST
Moon 4:15 AM EEST 6:15 PM EEST
Length of Visible Light 14h 22m
Length of Day
13h 26m
Tomorrow will be 2m 25s shorter.
Waning Crescent, 3% of the Moon is Illuminated
Today
Waning Crescent
Aug 25
New
Sep 2
First Quarter
Sep 8
Full
Sep 15
Last Quarter

Today's Extremes

Country Highs Country Lows

Community

WunderPhotos

Upload Photos

1,746,583 photos uploaded!

WunderBlogs® & News

Nearby

Snow Depth

Not available.

Earthquake Activity

City Distance Mag. Time & Date
No recent earthquake activity has been reported nearby.
Minimum magnitude displayed is 2.5.

Coastal Water Temperatures

Place Temperature
No Stations Reporting

Nearby Weather Stations